createdAt,value
2023-05-09T00:02:30.531Z,21.41
2023-05-09T00:05:03.729Z,21.41
2023-05-09T00:07:34.958Z,21.41
2023-05-09T00:10:05.977Z,21.40
2023-05-09T00:12:36.978Z,21.39
2023-05-09T00:15:09.457Z,21.40
2023-05-09T00:17:40.195Z,21.39
2023-05-09T00:20:13.088Z,21.39
2023-05-09T00:22:43.873Z,21.39
2023-05-09T00:25:15.065Z,21.39
2023-05-09T00:27:46.210Z,21.37
2023-05-09T00:30:17.844Z,21.38
2023-05-09T00:32:48.614Z,21.37
2023-05-09T00:35:19.524Z,21.37
2023-05-09T00:37:50.156Z,21.37
2023-05-09T00:40:20.976Z,21.38
2023-05-09T00:42:51.716Z,21.38
2023-05-09T00:45:22.691Z,21.38
2023-05-09T00:47:53.811Z,21.38
2023-05-09T00:50:24.998Z,21.38
2023-05-09T00:52:56.254Z,21.38
2023-05-09T00:55:27.363Z,21.38
2023-05-09T00:57:58.095Z,21.39
2023-05-09T01:00:28.835Z,21.39
2023-05-09T01:02:59.822Z,21.38
2023-05-09T01:05:40.772Z,21.37
2023-05-09T01:08:19.290Z,21.37
2023-05-09T01:11:02.360Z,21.38
2023-05-09T01:13:39.371Z,21.37
2023-05-09T01:16:16.754Z,21.36
2023-05-09T01:18:52.763Z,21.36
2023-05-09T01:21:29.350Z,21.38
2023-05-09T01:24:26.310Z,21.39
2023-05-09T01:27:14.332Z,21.38
2023-05-09T01:29:48.403Z,21.38
2023-05-09T01:32:28.898Z,21.38
2023-05-09T01:35:04.585Z,21.39
2023-05-09T01:37:40.399Z,21.39
2023-05-09T01:40:16.703Z,21.39
2023-05-09T01:42:52.325Z,21.38
2023-05-09T01:45:24.924Z,21.38
2023-05-09T01:47:57.404Z,21.38
2023-05-09T01:50:31.235Z,21.39
2023-05-09T01:53:03.027Z,21.38
2023-05-09T01:55:37.271Z,21.38
2023-05-09T01:58:13.381Z,21.38
2023-05-09T02:00:45.424Z,21.38
2023-05-09T02:03:17.040Z,21.37
2023-05-09T02:05:48.949Z,21.37
2023-05-09T02:08:22.228Z,21.37
2023-05-09T02:10:53.174Z,21.36
2023-05-09T02:13:24.120Z,21.38
2023-05-09T02:15:55.689Z,21.38
2023-05-09T02:18:27.509Z,21.38
2023-05-09T02:20:58.419Z,21.37
2023-05-09T02:23:29.634Z,21.36
2023-05-09T02:26:00.593Z,21.34
2023-05-09T02:28:32.130Z,21.34
2023-05-09T02:31:07.785Z,21.33
2023-05-09T02:33:40.595Z,21.32
2023-05-09T02:36:13.422Z,21.31
2023-05-09T02:38:45.641Z,21.31
2023-05-09T02:41:17.673Z,21.31
2023-05-09T02:43:48.748Z,21.30
2023-05-09T02:46:19.446Z,21.30
2023-05-09T02:48:50.330Z,21.28
2023-05-09T02:51:21.156Z,21.28
2023-05-09T02:53:51.792Z,21.26
2023-05-09T02:56:22.548Z,21.24
2023-05-09T02:58:53.201Z,21.25
2023-05-09T03:01:25.167Z,21.24
2023-05-09T03:03:55.857Z,21.24
2023-05-09T03:06:26.822Z,21.24
2023-05-09T03:08:57.906Z,21.23
2023-05-09T03:11:29.652Z,21.22
2023-05-09T03:14:00.673Z,21.20
2023-05-09T03:16:31.811Z,21.20
2023-05-09T03:19:04.586Z,21.20
2023-05-09T03:21:35.508Z,21.20
2023-05-09T03:24:06.678Z,21.20
2023-05-09T03:26:37.354Z,21.20
2023-05-09T03:29:08.490Z,21.22
2023-05-09T03:31:39.232Z,21.22
2023-05-09T03:34:15.038Z,21.22
2023-05-09T03:36:46.199Z,21.21
2023-05-09T03:39:17.474Z,21.20
2023-05-09T03:41:48.895Z,21.22
2023-05-09T03:44:19.554Z,21.22
2023-05-09T03:46:51.222Z,21.23
2023-05-09T03:49:21.933Z,21.22
2023-05-09T03:51:52.965Z,21.21
2023-05-09T03:54:23.955Z,21.20
2023-05-09T03:56:54.762Z,21.19
2023-05-09T03:59:25.436Z,21.17
2023-05-09T04:01:56.514Z,21.16
2023-05-09T04:04:27.536Z,21.15
2023-05-09T04:06:58.355Z,21.16
2023-05-09T04:09:29.433Z,21.17
2023-05-09T04:12:00.136Z,21.18
2023-05-09T04:14:31.088Z,21.19
2023-05-09T04:17:01.892Z,21.22
2023-05-09T04:19:32.763Z,21.23
2023-05-09T04:22:03.377Z,21.20
2023-05-09T04:24:34.098Z,21.17
2023-05-09T04:27:05.656Z,21.15
2023-05-09T04:29:36.585Z,21.12
2023-05-09T04:32:08.536Z,21.12
2023-05-09T04:34:39.355Z,21.09
2023-05-09T04:37:11.223Z,21.05
2023-05-09T04:39:44.940Z,21.02
2023-05-09T04:42:15.875Z,20.98
2023-05-09T04:44:46.733Z,20.94
2023-05-09T04:47:17.486Z,20.90
2023-05-09T04:49:48.299Z,20.85
2023-05-09T04:52:19.110Z,20.81
2023-05-09T04:54:50.160Z,20.77
2023-05-09T04:57:20.902Z,20.74
2023-05-09T04:59:53.111Z,20.70
2023-05-09T05:02:25.310Z,20.67
2023-05-09T05:05:06.198Z,20.64
2023-05-09T05:07:42.404Z,20.61
2023-05-09T05:10:13.850Z,20.59
2023-05-09T05:12:44.692Z,20.58
2023-05-09T05:15:16.375Z,20.55
2023-05-09T05:17:47.369Z,20.54
2023-05-09T05:20:18.227Z,20.54
2023-05-09T05:22:49.279Z,20.53
2023-05-09T05:25:21.084Z,20.51
2023-05-09T05:27:52.070Z,20.50
2023-05-09T05:30:23.181Z,20.49
2023-05-09T05:32:53.997Z,20.47
2023-05-09T05:35:25.133Z,20.47
2023-05-09T05:37:58.179Z,20.45
2023-05-09T05:40:28.930Z,20.43
2023-05-09T05:42:59.678Z,20.43
2023-05-09T05:45:31.102Z,20.42
2023-05-09T05:48:02.754Z,20.42
2023-05-09T05:50:34.055Z,20.40
2023-05-09T05:53:04.835Z,20.39
2023-05-09T05:55:35.818Z,20.37
2023-05-09T05:58:06.575Z,20.36
2023-05-09T06:00:37.292Z,20.35
2023-05-09T06:03:08.867Z,20.34
2023-05-09T06:05:39.887Z,20.33
2023-05-09T06:08:11.256Z,20.31
2023-05-09T06:10:42.162Z,20.31
2023-05-09T06:13:13.160Z,20.29
2023-05-09T06:15:44.125Z,20.29
2023-05-09T06:18:14.818Z,20.28
2023-05-09T06:20:45.649Z,20.27
2023-05-09T06:23:22.018Z,20.25
2023-05-09T06:25:52.848Z,20.25
2023-05-09T06:28:24.006Z,20.23
2023-05-09T06:30:54.945Z,20.22
2023-05-09T06:33:25.784Z,20.22
2023-05-09T06:35:56.551Z,20.20
2023-05-09T06:38:27.727Z,20.20
2023-05-09T06:40:58.421Z,20.19
2023-05-09T06:43:29.455Z,20.19
2023-05-09T06:46:00.330Z,20.18
2023-05-09T06:48:31.037Z,20.18
2023-05-09T06:51:01.663Z,20.18
2023-05-09T06:53:32.421Z,20.15
2023-05-09T06:56:03.133Z,20.17
2023-05-09T06:58:34.090Z,20.14
2023-05-09T07:01:05.607Z,20.15
2023-05-09T07:03:36.498Z,20.13
2023-05-09T07:06:07.578Z,20.12
2023-05-09T07:08:38.565Z,20.10
2023-05-09T07:11:09.375Z,20.09
2023-05-09T07:13:40.113Z,20.09
2023-05-09T07:16:10.842Z,20.08
2023-05-09T07:18:42.020Z,20.08
2023-05-09T07:21:12.712Z,20.08
2023-05-09T07:23:43.327Z,20.08
2023-05-09T07:26:13.965Z,20.09
2023-05-09T07:28:45.076Z,20.08
2023-05-09T07:31:15.859Z,20.07
2023-05-09T07:33:47.003Z,20.07
2023-05-09T07:36:17.752Z,20.03
2023-05-09T07:38:50.640Z,20.06
2023-05-09T07:41:22.531Z,20.05
2023-05-09T07:43:53.509Z,20.07
2023-05-09T07:46:24.316Z,20.07
2023-05-09T07:48:55.089Z,20.06
2023-05-09T07:51:26.588Z,20.05
2023-05-09T07:53:57.396Z,20.05
2023-05-09T07:56:28.245Z,20.04
2023-05-09T07:58:59.078Z,20.03
2023-05-09T08:01:29.931Z,20.02
2023-05-09T08:04:00.997Z,20.01
2023-05-09T08:06:31.806Z,20.00
2023-05-09T08:09:02.584Z,20.00
2023-05-09T08:11:36.017Z,19.98
2023-05-09T08:14:07.081Z,19.98
2023-05-09T08:16:37.780Z,19.99
2023-05-09T08:19:08.530Z,19.99
2023-05-09T08:21:39.264Z,20.00
2023-05-09T08:24:10.754Z,19.99
2023-05-09T08:26:41.685Z,19.99
2023-05-09T08:29:12.762Z,19.96
2023-05-09T08:31:43.471Z,19.96
2023-05-09T08:34:14.431Z,19.97
2023-05-09T08:36:47.042Z,19.97
2023-05-09T08:39:19.422Z,19.96
2023-05-09T08:41:50.615Z,19.95
2023-05-09T08:44:23.674Z,19.95
2023-05-09T08:46:56.539Z,19.96
2023-05-09T08:49:28.119Z,19.96
2023-05-09T08:51:59.359Z,19.97
2023-05-09T08:54:31.337Z,19.98
2023-05-09T08:57:04.305Z,19.98
2023-05-09T08:59:37.597Z,19.99
2023-05-09T09:02:13.881Z,19.99
2023-05-09T09:04:45.323Z,20.00
2023-05-09T09:07:17.236Z,20.00
2023-05-09T09:09:50.118Z,19.99
2023-05-09T09:12:22.665Z,20.01
2023-05-09T09:15:00.698Z,20.01
2023-05-09T09:17:34.339Z,20.03
2023-05-09T09:20:10.358Z,20.05
2023-05-09T09:22:49.050Z,20.06
2023-05-09T09:25:20.250Z,20.07
2023-05-09T09:27:50.989Z,20.08
2023-05-09T09:30:25.023Z,20.07
2023-05-09T09:32:56.277Z,20.08
2023-05-09T09:35:27.674Z,20.09
2023-05-09T09:38:01.013Z,20.09
2023-05-09T09:40:31.954Z,20.09
2023-05-09T09:43:03.099Z,20.10
2023-05-09T09:45:34.298Z,20.10
2023-05-09T09:48:08.625Z,20.10
2023-05-09T09:50:39.608Z,20.11
2023-05-09T09:53:10.529Z,20.10
2023-05-09T09:55:53.331Z,20.11
2023-05-09T09:58:25.252Z,20.10
2023-05-09T10:01:09.682Z,20.12
2023-05-09T10:03:41.873Z,20.11
2023-05-09T10:06:16.903Z,20.11
2023-05-09T10:08:49.119Z,20.12
2023-05-09T10:11:20.418Z,20.13
2023-05-09T10:13:51.611Z,20.13
2023-05-09T10:16:35.786Z,20.12
2023-05-09T10:19:13.206Z,20.12
2023-05-09T10:21:44.405Z,20.13
2023-05-09T10:24:16.635Z,20.12
2023-05-09T10:26:50.984Z,20.13
2023-05-09T10:29:29.902Z,20.13
2023-05-09T10:32:06.742Z,20.13
2023-05-09T10:34:39.519Z,20.15
2023-05-09T10:37:11.898Z,20.15
2023-05-09T10:39:44.115Z,20.16
2023-05-09T10:42:15.518Z,20.17
2023-05-09T10:44:47.904Z,20.17
2023-05-09T10:47:19.520Z,20.18
2023-05-09T10:49:52.232Z,20.18
2023-05-09T10:52:25.457Z,20.17
2023-05-09T10:55:04.661Z,20.17
2023-05-09T10:57:40.293Z,20.18
2023-05-09T11:00:13.955Z,20.18
2023-05-09T11:03:04.851Z,20.19
2023-05-09T11:05:42.233Z,20.19
2023-05-09T11:08:26.778Z,20.20
2023-05-09T11:13:33.583Z,20.19
2023-05-09T11:16:13.484Z,20.17
2023-05-09T11:18:54.985Z,20.17
2023-05-09T11:21:26.288Z,20.15
2023-05-09T11:23:57.184Z,20.15
2023-05-09T11:26:32.536Z,20.16
2023-05-09T11:29:07.437Z,20.17
2023-05-09T11:31:58.252Z,20.18
2023-05-09T11:34:30.340Z,20.18
2023-05-09T11:37:13.260Z,20.18
2023-05-09T11:40:01.568Z,20.18
2023-05-09T11:42:32.812Z,20.15
2023-05-09T11:45:05.295Z,20.18
2023-05-09T11:47:36.900Z,20.20
2023-05-09T11:50:11.140Z,20.20
2023-05-09T11:52:42.752Z,20.20
2023-05-09T11:55:16.381Z,20.20
2023-05-09T11:57:46.358Z,20.20
2023-05-09T12:00:19.385Z,20.18
2023-05-09T12:02:52.734Z,20.22
2023-05-09T12:05:24.851Z,20.22
2023-05-09T12:07:55.582Z,20.23
2023-05-09T12:10:26.484Z,20.24
2023-05-09T12:12:58.565Z,20.25
2023-05-09T12:15:29.607Z,20.27
2023-05-09T12:18:08.104Z,20.26
2023-05-09T12:20:48.249Z,20.27
2023-05-09T12:23:20.570Z,20.27
2023-05-09T12:25:54.316Z,20.27
2023-05-09T12:28:24.390Z,20.27
2023-05-09T12:30:56.341Z,20.25
2023-05-09T12:33:27.835Z,20.25
2023-05-09T12:36:07.173Z,20.25
2023-05-09T12:38:38.205Z,20.25
2023-05-09T12:41:22.434Z,20.26
2023-05-09T12:44:01.460Z,20.25
2023-05-09T12:46:32.520Z,20.26
2023-05-09T12:49:03.441Z,20.26
2023-05-09T12:51:34.292Z,20.26
2023-05-09T12:54:11.113Z,20.26
2023-05-09T12:56:41.997Z,20.26
2023-05-09T12:59:15.463Z,20.26
2023-05-09T13:01:46.537Z,20.25
2023-05-09T13:04:20.426Z,20.26
2023-05-09T13:06:57.428Z,20.28
2023-05-09T13:09:29.711Z,20.26
2023-05-09T13:12:00.553Z,20.27
2023-05-09T13:14:31.393Z,20.25
2023-05-09T13:17:02.270Z,20.27
2023-05-09T13:19:39.375Z,20.27
2023-05-09T13:22:12.154Z,20.27
2023-05-09T13:24:43.199Z,20.27
2023-05-09T13:27:13.884Z,20.27
2023-05-09T13:29:44.731Z,20.27
2023-05-09T13:32:15.971Z,20.27
2023-05-09T13:34:46.759Z,20.26
2023-05-09T13:37:17.407Z,20.27
2023-05-09T13:39:48.297Z,20.27
2023-05-09T13:42:19.546Z,20.27
2023-05-09T13:44:50.661Z,20.26
2023-05-09T13:47:21.501Z,20.25
2023-05-09T13:49:52.728Z,20.26
2023-05-09T13:52:24.277Z,20.26
2023-05-09T13:54:55.053Z,20.25
2023-05-09T13:57:26.050Z,20.27
2023-05-09T13:59:56.859Z,20.27
2023-05-09T14:02:27.607Z,20.27
2023-05-09T14:04:58.938Z,20.27
2023-05-09T14:07:30.103Z,20.27
2023-05-09T14:10:11.387Z,20.27
2023-05-09T14:12:45.550Z,20.27
2023-05-09T14:15:16.650Z,20.26
2023-05-09T14:17:47.622Z,20.26
2023-05-09T14:20:18.463Z,20.26
2023-05-09T14:22:49.554Z,20.27
2023-05-09T14:25:20.521Z,20.26
2023-05-09T14:27:51.612Z,20.27
2023-05-09T14:30:22.815Z,20.26
2023-05-09T14:32:53.976Z,20.26
2023-05-09T14:35:25.066Z,20.27
2023-05-09T14:37:56.255Z,20.27
2023-05-09T14:40:31.871Z,20.27
2023-05-09T14:43:03.334Z,20.27
2023-05-09T14:45:34.817Z,20.28
2023-05-09T14:48:05.959Z,20.28
2023-05-09T14:50:36.813Z,20.28
2023-05-09T14:53:07.978Z,20.28
2023-05-09T14:55:38.748Z,20.28
2023-05-09T14:58:09.957Z,20.29
2023-05-09T15:00:40.978Z,20.29
2023-05-09T15:03:12.152Z,20.29
2023-05-09T15:05:43.704Z,20.28
2023-05-09T15:08:14.737Z,20.28
2023-05-09T15:10:45.620Z,20.28
2023-05-09T15:13:16.650Z,20.28
2023-05-09T15:15:47.972Z,20.28
2023-05-09T15:18:20.277Z,20.28
2023-05-09T15:20:52.320Z,20.28
2023-05-09T15:23:23.160Z,20.28
2023-05-09T15:25:54.242Z,20.27
2023-05-09T15:28:25.035Z,20.28
2023-05-09T15:30:58.132Z,20.26
2023-05-09T15:33:29.570Z,20.25
2023-05-09T15:36:01.847Z,20.26
2023-05-09T15:38:32.808Z,20.26
2023-05-09T15:41:04.029Z,20.27
2023-05-09T15:43:34.745Z,20.28
2023-05-09T15:46:06.032Z,20.27
2023-05-09T15:48:36.883Z,20.27
2023-05-09T15:51:08.938Z,20.28
2023-05-09T15:53:40.104Z,20.27
2023-05-09T15:56:11.585Z,20.25
2023-05-09T15:58:42.699Z,20.27
2023-05-09T16:01:14.729Z,20.27
2023-05-09T16:03:46.126Z,20.28
2023-05-09T16:06:17.458Z,20.29
2023-05-09T16:08:48.763Z,20.29
2023-05-09T16:11:19.975Z,20.29
2023-05-09T16:13:51.134Z,20.28
2023-05-09T16:16:22.172Z,20.28
2023-05-09T16:18:53.217Z,20.26
2023-05-09T16:21:27.895Z,20.22
2023-05-09T16:24:00.287Z,20.18
2023-05-09T16:26:31.412Z,20.15
2023-05-09T16:29:03.847Z,20.15
2023-05-09T16:31:35.886Z,20.16
2023-05-09T16:34:07.488Z,20.17
2023-05-09T16:36:39.560Z,20.18
2023-05-09T16:39:11.123Z,20.20
2023-05-09T16:41:42.212Z,20.20
2023-05-09T16:44:13.701Z,20.20
2023-05-09T16:46:44.742Z,20.22
2023-05-09T16:49:16.228Z,20.25
2023-05-09T16:51:47.709Z,20.27
2023-05-09T16:54:18.789Z,20.29
2023-05-09T16:56:49.955Z,20.31
2023-05-09T16:59:22.025Z,20.34
2023-05-09T17:01:53.972Z,20.37
2023-05-09T17:04:25.431Z,20.40
2023-05-09T17:06:56.539Z,20.43
2023-05-09T17:09:29.152Z,20.44
2023-05-09T17:12:00.775Z,20.45
2023-05-09T17:14:31.690Z,20.50
2023-05-09T17:17:02.686Z,20.52
2023-05-09T17:19:34.859Z,20.53
2023-05-09T17:22:06.096Z,20.56
2023-05-09T17:24:37.229Z,20.57
2023-05-09T17:27:08.851Z,20.60
2023-05-09T17:29:39.780Z,20.62
2023-05-09T17:32:11.320Z,20.63
2023-05-09T17:34:42.380Z,20.64
2023-05-09T17:37:13.403Z,20.67
2023-05-09T17:39:44.732Z,20.67
2023-05-09T17:42:16.326Z,20.68
2023-05-09T17:44:48.921Z,20.67
2023-05-09T17:47:19.904Z,20.69
2023-05-09T17:49:51.260Z,20.71
2023-05-09T17:52:22.836Z,20.72
2023-05-09T17:54:54.239Z,20.72
2023-05-09T17:57:25.175Z,20.73
2023-05-09T17:59:56.375Z,20.72
2023-05-09T18:02:28.319Z,20.70
2023-05-09T18:05:00.949Z,20.68
2023-05-09T18:07:33.791Z,20.67
2023-05-09T18:10:04.964Z,20.65
2023-05-09T18:12:37.308Z,20.65
2023-05-09T18:15:10.570Z,20.63
2023-05-09T18:17:42.230Z,20.63
2023-05-09T18:20:14.370Z,20.63
2023-05-09T18:22:45.868Z,20.64
2023-05-09T18:25:17.416Z,20.63
2023-05-09T18:27:48.684Z,20.62
2023-05-09T18:30:22.591Z,20.60
2023-05-09T18:32:52.552Z,20.59
2023-05-09T18:35:25.052Z,20.56
2023-05-09T18:37:55.934Z,20.56
2023-05-09T18:40:27.436Z,20.56
2023-05-09T18:42:58.620Z,20.55
2023-05-09T18:45:31.167Z,20.55
2023-05-09T18:48:03.222Z,20.53
2023-05-09T18:50:34.913Z,20.52
2023-05-09T18:53:06.478Z,20.52
2023-05-09T18:55:37.759Z,20.51
2023-05-09T18:58:09.218Z,20.50
2023-05-09T19:00:40.931Z,20.46
2023-05-09T19:03:12.052Z,20.42
2023-05-09T19:05:44.042Z,20.37
2023-05-09T19:08:17.440Z,20.35
2023-05-09T19:10:48.315Z,20.33
2023-05-09T19:13:19.658Z,20.30
2023-05-09T19:15:51.413Z,20.28
2023-05-09T19:18:22.279Z,20.27
2023-05-09T19:20:53.125Z,20.26
2023-05-09T19:23:24.292Z,20.27
2023-05-09T19:25:56.651Z,20.26
2023-05-09T19:28:27.707Z,20.27
2023-05-09T19:30:58.803Z,20.29
2023-05-09T19:33:29.764Z,20.30
2023-05-09T19:36:00.792Z,20.32
2023-05-09T19:38:31.926Z,20.33
2023-05-09T19:41:03.174Z,20.33
2023-05-09T19:43:34.239Z,20.33
2023-05-09T19:46:05.650Z,20.34
2023-05-09T19:48:36.918Z,20.36
2023-05-09T19:51:09.008Z,20.37
2023-05-09T19:53:40.109Z,20.38
2023-05-09T19:56:12.750Z,20.39
2023-05-09T19:58:44.058Z,20.41
2023-05-09T20:01:15.207Z,20.42
2023-05-09T20:03:46.956Z,20.44
2023-05-09T20:06:18.007Z,20.44
2023-05-09T20:08:51.565Z,20.48
2023-05-09T20:11:23.391Z,20.49
2023-05-09T20:13:54.092Z,20.50
2023-05-09T20:16:25.131Z,20.51
2023-05-09T20:18:56.429Z,20.52
2023-05-09T20:21:28.080Z,20.53
2023-05-09T20:23:59.027Z,20.53
2023-05-09T20:26:29.852Z,20.55
2023-05-09T20:29:01.641Z,20.55
2023-05-09T20:31:33.261Z,20.56
2023-05-09T20:34:04.335Z,20.56
2023-05-09T20:36:35.208Z,20.57
2023-05-09T20:39:06.235Z,20.58
2023-05-09T20:41:37.159Z,20.59
2023-05-09T20:44:07.935Z,20.57
2023-05-09T20:46:40.411Z,20.60
2023-05-09T20:49:11.256Z,20.62
2023-05-09T20:51:42.166Z,20.64
2023-05-09T20:54:13.315Z,20.65
2023-05-09T20:56:44.135Z,20.65
2023-05-09T20:59:15.031Z,20.66
2023-05-09T21:01:45.930Z,20.67
2023-05-09T21:04:16.840Z,20.67
2023-05-09T21:06:47.998Z,20.69
2023-05-09T21:09:19.184Z,20.72
2023-05-09T21:11:50.123Z,20.74
2023-05-09T21:14:21.487Z,20.75
2023-05-09T21:16:55.130Z,20.77
2023-05-09T21:19:26.431Z,20.79
2023-05-09T21:21:57.588Z,20.80
2023-05-09T21:24:28.277Z,20.82
2023-05-09T21:26:58.977Z,20.84
2023-05-09T21:29:29.965Z,20.86
2023-05-09T21:32:00.838Z,20.87
2023-05-09T21:34:31.988Z,20.90
2023-05-09T21:37:02.920Z,20.91
2023-05-09T21:39:33.807Z,20.95
2023-05-09T21:42:04.800Z,20.98
2023-05-09T21:44:35.864Z,20.99
2023-05-09T21:47:06.863Z,21.01
2023-05-09T21:49:37.623Z,21.03
2023-05-09T21:52:09.217Z,21.04
2023-05-09T21:54:40.146Z,21.06
2023-05-09T21:57:11.437Z,21.07
2023-05-09T21:59:42.127Z,21.07
2023-05-09T22:02:13.084Z,21.09
2023-05-09T22:04:43.905Z,21.10
2023-05-09T22:07:14.592Z,21.10
2023-05-09T22:09:45.588Z,21.12
2023-05-09T22:12:16.527Z,21.13
2023-05-09T22:14:55.835Z,21.12
2023-05-09T22:17:28.013Z,21.10
2023-05-09T22:19:58.759Z,21.10
2023-05-09T22:22:29.916Z,21.10
2023-05-09T22:25:00.561Z,21.08
2023-05-09T22:27:31.447Z,21.08
2023-05-09T22:30:03.261Z,21.08
2023-05-09T22:32:34.142Z,21.07
2023-05-09T22:35:05.402Z,21.07
2023-05-09T22:37:36.123Z,21.07
2023-05-09T22:40:09.313Z,21.07
2023-05-09T22:42:40.016Z,21.07
2023-05-09T22:45:12.451Z,21.06
2023-05-09T22:47:43.147Z,21.08
2023-05-09T22:50:14.641Z,21.08
2023-05-09T22:52:45.621Z,21.07
2023-05-09T22:55:16.635Z,21.07
2023-05-09T22:57:47.604Z,21.07
2023-05-09T23:00:19.411Z,21.04
2023-05-09T23:02:50.100Z,21.05
2023-05-09T23:05:21.381Z,21.05
2023-05-09T23:07:52.048Z,21.03
2023-05-09T23:10:22.849Z,21.01
2023-05-09T23:12:53.596Z,21.01
2023-05-09T23:15:24.426Z,21.00
2023-05-09T23:17:55.175Z,20.98
2023-05-09T23:20:26.748Z,20.97
2023-05-09T23:22:57.778Z,20.97
2023-05-09T23:25:28.472Z,20.95
2023-05-09T23:27:59.413Z,20.94
2023-05-09T23:30:30.065Z,20.92
2023-05-09T23:33:00.801Z,20.92
2023-05-09T23:35:32.088Z,20.90
2023-05-09T23:38:04.551Z,20.89
2023-05-09T23:40:35.292Z,20.88
2023-05-09T23:43:06.132Z,20.87
2023-05-09T23:45:36.817Z,20.86
2023-05-09T23:48:08.706Z,20.85
2023-05-09T23:50:39.879Z,20.83
2023-05-09T23:53:10.533Z,20.82
2023-05-09T23:55:41.462Z,20.82
2023-05-09T23:58:12.199Z,20.81
